Time;durP1;ratioP1;P1;durP2;ratioP2;P2;SDS_P1;SDS_P2;PMS_P1;PMS_P2;Temp;Humidity;BMP_temperature;BMP_pressure;BME280_temperature;BME280_humidity;BME280_pressure;Samples;Min_cycle;Max_cycle;Signal;HPM_P1;HPM_P2
2022/04/29 03:50:28;;;;;;;;;;;;;;;12.26;56.84;97614.06;4228808;27;10233;-66
2022/04/29 03:52:29;;;;;;;;;;;;;;;12.31;56.46;97611.69;4198248;28;5660;-67
2022/04/29 03:54:32;;;;;;;;;;;;;;;12.31;56.46;97603.72;4195917;28;5654;-66
2022/04/29 03:56:34;;;;;;;;;;;;;;;12.33;56.57;97610.47;4206318;28;5870;-67
2022/04/29 03:58:35;;;;;;;;;;;;;;;12.37;56.67;97613.63;4215119;28;5691;-67
2022/04/29 04:00:37;;;;;;;;;;;;;;;12.37;56.53;97618.91;4214393;28;5627;-65
2022/04/29 04:02:39;;;;;;;;;;;;;;;12.38;56.52;97624.03;4214011;28;5616;-67
2022/04/29 04:04:41;;;;;;;;;;;;;;;12.42;56.57;97621.81;4205880;28;5647;-68
2022/04/29 04:06:49;;;;;;;;;;;;;;;12.40;56.47;97619.34;4216147;28;5703;-67
2022/04/29 04:08:51;;;;;;;;;;;;;;;12.43;56.36;97613.69;4216144;28;6786;-67
2022/04/29 04:10:52;;;;;;;;;;;;;;;12.44;56.31;97614.50;4213999;28;5769;-67
2022/04/29 04:12:54;;;;;;;;;;;;;;;12.44;56.31;97611.84;4214711;28;5631;-67
2022/04/29 04:14:59;;;;;;;;;;;;;;;12.45;56.58;97610.84;4214230;28;5665;-67
2022/04/29 04:17:02;;;;;;;;;;;;;;;12.46;56.36;97615.16;4215011;28;5643;-68
2022/04/29 04:19:04;;;;;;;;;;;;;;;12.52;56.28;97622.38;4194874;28;6470;-68
2022/04/29 04:21:06;;;;;;;;;;;;;;;12.54;56.49;97623.00;4213758;28;5706;-67
2022/04/29 04:23:09;;;;;;;;;;;;;;;12.56;56.18;97631.59;4214342;28;5639;-67
2022/04/29 04:25:13;;;;;;;;;;;;;;;12.52;56.44;97628.50;4210949;28;5753;-67
2022/04/29 04:27:14;;;;;;;;;;;;;;;12.50;56.59;97630.50;4214458;28;5639;-67
2022/04/29 04:29:16;;;;;;;;;;;;;;;12.51;56.83;97631.34;4213482;28;5698;-67
2022/04/29 04:31:21;;;;;;;;;;;;;;;12.53;56.79;97634.63;4213594;28;5656;-66
2022/04/29 04:33:22;;;;;;;;;;;;;;;12.50;57.09;97632.34;4214049;28;6482;-66
2022/04/29 04:35:24;;;;;;;;;;;;;;;12.53;57.49;97634.63;4214618;28;5699;-66
2022/04/29 04:37:28;;;;;;;;;;;;;;;12.43;57.77;97628.75;4211105;28;5631;-66
2022/04/29 04:39:30;;;;;;;;;;;;;;;12.33;57.84;97629.03;4214231;28;5729;-65
2022/04/29 04:41:33;;;;;;;;;;;;;;;12.28;58.20;97626.13;4213471;28;5710;-66
2022/04/29 04:43:38;;;;;;;;;;;;;;;12.19;59.04;97629.88;4213736;28;5632;-67
2022/04/29 04:45:39;;;;;;;;;;;;;;;12.08;59.25;97636.44;4214437;28;5619;-67
2022/04/29 04:47:41;;;;;;;;;;;;;;;12.07;58.99;97634.00;4213941;28;5727;-67
2022/04/29 04:49:43;;;;;;;;;;;;;;;12.17;59.15;97635.38;4208676;28;5766;-67
2022/04/29 04:51:44;;;;;;;;;;;;;;;12.13;59.16;97636.75;4199966;28;5723;-67
2022/04/29 04:53:46;;;;;;;;;;;;;;;12.08;59.27;97636.44;4202718;28;5648;-67
2022/04/29 04:55:48;;;;;;;;;;;;;;;11.93;60.27;97639.09;4202310;28;5638;-66
2022/04/29 04:57:49;;;;;;;;;;;;;;;11.96;60.52;97632.59;4203091;28;5058;-66
2022/04/29 04:59:51;;;;;;;;;;;;;;;11.97;60.21;97639.56;4196066;28;5893;-66
2022/04/29 05:01:53;;;;;;;;;;;;;;;12.03;60.16;97638.03;4202538;28;7751;-66
2022/04/29 05:03:55;;;;;;;;;;;;;;;12.15;59.18;97637.38;4202191;28;7782;-66
2022/04/29 05:05:57;;;;;;;;;;;;;;;12.11;60.10;97638.72;4195704;28;5823;-67
2022/04/29 05:07:58;;;;;;;;;;;;;;;12.13;60.00;97641.22;4198895;28;5830;-67
2022/04/29 05:10:00;;;;;;;;;;;;;;;12.16;59.67;97646.16;4194812;28;5735;-66
2022/04/29 05:12:02;;;;;;;;;;;;;;;12.27;59.47;97650.19;4184798;28;5714;-67
2022/04/29 05:14:08;;;;;;;;;;;;;;;12.44;58.62;97659.59;4185248;28;5737;-66
2022/04/29 05:16:09;;;;;;;;;;;;;;;12.43;59.82;97672.03;4200557;28;5710;-67
2022/04/29 05:18:11;;;;;;;;;;;;;;;12.43;59.09;97671.19;4202828;28;5643;-69
2022/04/29 05:20:15;;;;;;;;;;;;;;;12.47;59.00;97668.00;4200813;28;5670;-67
2022/04/29 05:22:17;;;;;;;;;;;;;;;12.52;59.12;97670.94;4184570;28;5650;-66
2022/04/29 05:24:19;;;;;;;;;;;;;;;12.63;58.54;97664.34;4191721;28;5721;-66
2022/04/29 05:26:27;;;;;;;;;;;;;;;12.59;59.23;97665.72;4201090;28;5723;-65
2022/04/29 05:28:29;;;;;;;;;;;;;;;12.64;59.44;97673.94;4202161;28;5632;-65
2022/04/29 05:30:31;;;;;;;;;;;;;;;12.66;58.92;97673.75;4201231;28;5781;-66
2022/04/29 05:32:33;;;;;;;;;;;;;;;12.71;58.97;97679.34;4187249;28;5564;-66
2022/04/29 05:34:35;;;;;;;;;;;;;;;12.49;60.74;97683.75;4202552;28;5627;-66
2022/04/29 05:36:36;;;;;;;;;;;;;;;12.26;61.83;97675.88;4202064;28;5734;-66
2022/04/29 05:43:19;;;;;;;;;;;;;;;12.31;62.57;97684.09;4201834;28;5701;-65
2022/04/29 05:45:20;;;;;;;;;;;;;;;12.16;63.90;97683.25;4200095;28;5112;-66
2022/04/29 05:47:22;;;;;;;;;;;;;;;12.17;64.28;97682.25;4202124;28;5636;-66
2022/04/29 05:49:24;;;;;;;;;;;;;;;12.28;64.31;97683.63;4202555;28;5704;-68
2022/04/29 05:51:25;;;;;;;;;;;;;;;12.09;66.00;97688.47;4204646;28;5605;-67
2022/04/29 05:53:27;;;;;;;;;;;;;;;12.11;66.01;97689.09;4168568;28;5685;-67
2022/04/29 05:55:29;;;;;;;;;;;;;;;12.10;66.48;97687.44;4201175;28;5857;-66
2022/04/29 05:57:48;;;;;;;;;;;;;;;12.19;65.46;97691.66;4201682;28;5723;-66
2022/04/29 05:59:50;;;;;;;;;;;;;;;12.18;65.18;97690.03;4199588;28;5799;-66
2022/04/29 06:01:52;;;;;;;;;;;;;;;12.05;64.70;97687.19;4182677;28;5654;-66
2022/04/29 06:03:54;;;;;;;;;;;;;;;12.09;64.86;97691.09;4201751;28;5640;-66
2022/04/29 06:05:55;;;;;;;;;;;;;;;12.16;64.80;97694.69;4201539;28;6210;-65
2022/04/29 06:07:57;;;;;;;;;;;;;;;12.33;63.44;97697.16;4201534;28;5627;-67
2022/04/29 06:09:58;;;;;;;;;;;;;;;12.38;63.77;97692.16;4181943;28;5370;-66
2022/04/29 06:12:00;;;;;;;;;;;;;;;12.23;64.13;97698.28;4201520;28;7408;-66
2022/04/29 06:14:02;;;;;;;;;;;;;;;12.42;63.40;97699.53;4167690;28;5677;-66
2022/04/29 06:16:08;;;;;;;;;;;;;;;12.55;63.55;97698.91;4184029;28;5646;-66
2022/04/29 06:18:10;;;;;;;;;;;;;;;12.57;63.24;97699.56;4199944;28;5754;-66
2022/04/29 06:20:12;;;;;;;;;;;;;;;12.70;62.65;97693.63;4200524;28;5846;-66
2022/04/29 06:22:13;;;;;;;;;;;;;;;12.81;62.12;97698.44;4201530;28;5643;-66
2022/04/29 06:24:15;;;;;;;;;;;;;;;12.78;61.90;97702.28;4202337;28;5774;-66
2022/04/29 06:26:17;;;;;;;;;;;;;;;12.92;61.95;97697.16;4196604;28;5728;-66
2022/04/29 06:28:19;;;;;;;;;;;;;;;12.85;61.70;97689.09;4194325;28;5117;-66
2022/04/29 06:30:20;;;;;;;;;;;;;;;12.81;61.92;97696.63;4199062;28;5746;-66
2022/04/29 06:32:42;;;;;;;;;;;;;;;12.59;62.39;97705.50;4192665;28;5814;-66
2022/04/29 06:34:44;;;;;;;;;;;;;;;12.67;62.24;97705.38;4182140;28;5811;-66
2022/04/29 06:36:45;;;;;;;;;;;;;;;12.81;62.64;97703.75;4173424;28;5251;-66
2022/04/29 06:38:47;;;;;;;;;;;;;;;12.72;62.24;97708.34;4182025;28;7758;-66
2022/04/29 06:40:50;;;;;;;;;;;;;;;12.79;62.45;97701.25;4181719;28;5742;-66
2022/04/29 06:42:51;;;;;;;;;;;;;;;12.98;60.84;97707.00;4164503;28;5776;-66
2022/04/29 06:44:53;;;;;;;;;;;;;;;12.77;61.72;97703.28;4181637;28;5746;-66
2022/04/29 06:46:55;;;;;;;;;;;;;;;13.02;60.86;97713.59;4182175;28;6741;-66
2022/04/29 06:48:58;;;;;;;;;;;;;;;13.12;60.67;97706.16;4159324;28;7914;-66
2022/04/29 06:51:00;;;;;;;;;;;;;;;13.22;59.04;97706.72;4151711;28;6635;-66
2022/04/29 06:53:01;;;;;;;;;;;;;;;13.17;57.73;97706.44;4149020;28;5853;-66
2022/04/29 06:55:04;;;;;;;;;;;;;;;13.15;57.50;97708.44;4148314;28;5865;-66
2022/04/29 06:57:06;;;;;;;;;;;;;;;13.24;58.42;97710.00;4147436;28;5939;-66
2022/04/29 06:59:08;;;;;;;;;;;;;;;13.08;59.30;97707.53;4148864;28;5926;-66
2022/04/29 07:01:09;;;;;;;;;;;;;;;13.04;59.54;97706.28;4148600;28;5861;-66
2022/04/29 07:03:12;;;;;;;;;;;;;;;12.99;60.75;97698.84;4148865;28;5861;-66
2022/04/29 07:05:13;;;;;;;;;;;;;;;12.89;61.35;97697.50;4147596;28;5910;-66
2022/04/29 07:07:16;;;;;;;;;;;;;;;13.01;61.70;97699.50;4147384;28;5957;-66
2022/04/29 07:09:17;;;;;;;;;;;;;;;13.09;60.83;97703.88;4148790;28;5862;-68
2022/04/29 07:11:19;;;;;;;;;;;;;;;13.15;60.36;97695.19;4148363;28;5854;-68
2022/04/29 07:13:21;;;;;;;;;;;;;;;13.27;60.51;97698.19;4159515;28;5890;-68
2022/04/29 07:15:23;;;;;;;;;;;;;;;13.31;61.01;97702.94;4165115;28;5979;-68
2022/04/29 07:17:25;;;;;;;;;;;;;;;13.10;61.55;97697.56;4165179;28;5896;-66
2022/04/29 07:19:26;;;;;;;;;;;;;;;13.21;60.87;97694.44;4151392;28;5849;-69
2022/04/29 07:21:48;;;;;;;;;;;;;;;13.35;60.74;97693.56;4148909;28;5865;-69
2022/04/29 07:23:50;;;;;;;;;;;;;;;13.34;60.00;97689.28;4148626;28;5869;-69
2022/04/29 07:25:52;;;;;;;;;;;;;;;13.29;60.29;97681.06;4148509;28;5846;-69
2022/04/29 07:27:53;;;;;;;;;;;;;;;13.26;60.31;97684.09;4148646;28;5865;-69
2022/04/29 07:29:55;;;;;;;;;;;;;;;13.29;60.08;97681.06;4147076;28;5962;-69
2022/04/29 07:31:57;;;;;;;;;;;;;;;13.18;59.76;97689.50;4148534;28;5861;-69
2022/04/29 07:33:59;;;;;;;;;;;;;;;13.03;58.69;97689.53;4148694;28;5865;-69
2022/04/29 07:43:08;;;;;;;;;;;;;;;13.13;60.32;97686.56;4164889;28;5984;-69
2022/04/29 07:45:09;;;;;;;;;;;;;;;13.25;60.81;97686.91;4163164;28;5893;-69
2022/04/29 07:47:11;;;;;;;;;;;;;;;13.27;60.36;97691.06;4163520;28;5897;-69
2022/04/29 07:49:14;;;;;;;;;;;;;;;13.04;61.36;97688.53;4177924;28;5719;-69
2022/04/29 07:51:15;;;;;;;;;;;;;;;13.26;59.71;97685.94;4187414;28;5826;-69
2022/04/29 07:53:18;;;;;;;;;;;;;;;13.35;60.30;97687.44;4181191;28;5830;-69
2022/04/29 07:55:19;;;;;;;;;;;;;;;13.47;60.15;97685.09;4179407;28;5781;-69
2022/04/29 07:57:21;;;;;;;;;;;;;;;13.57;58.35;97691.75;4181296;28;5822;-69
2022/04/29 07:59:22;;;;;;;;;;;;;;;13.58;57.82;97687.25;4181215;28;5830;-69
2022/04/29 08:01:26;;;;;;;;;;;;;;;13.60;57.98;97693.22;4179987;28;5773;-69
2022/04/29 08:03:27;;;;;;;;;;;;;;;13.67;58.06;97691.44;4181389;28;5807;-69
2022/04/29 08:05:30;;;;;;;;;;;;;;;13.52;58.68;97686.19;4181192;28;5728;-69
2022/04/29 08:07:33;;;;;;;;;;;;;;;13.49;59.65;97688.41;4181257;28;5925;-69
2022/04/29 08:09:35;;;;;;;;;;;;;;;13.57;59.21;97694.41;4181075;28;6080;-69
2022/04/29 08:11:39;;;;;;;;;;;;;;;13.59;58.42;97683.56;4179392;28;5886;-68
2022/04/29 08:13:42;;;;;;;;;;;;;;;13.55;58.92;97692.94;4179700;28;5765;-68
2022/04/29 08:16:04;;;;;;;;;;;;;;;13.34;59.59;97689.28;4197490;28;5706;-68
2022/04/29 08:18:06;;;;;;;;;;;;;;;13.26;61.70;97681.44;4196275;28;5778;-68
2022/04/29 08:20:09;;;;;;;;;;;;;;;13.01;62.64;97680.09;4196942;28;5739;-67
2022/04/29 08:22:11;;;;;;;;;;;;;;;13.25;62.22;97679.81;4197414;28;5735;-65
2022/04/29 08:24:14;;;;;;;;;;;;;;;13.42;61.65;97676.88;4197596;28;5824;-67
2022/04/29 08:26:15;;;;;;;;;;;;;;;13.38;61.30;97674.63;4198102;28;5805;-68
2022/04/29 08:28:18;;;;;;;;;;;;;;;13.61;61.65;97679.75;4199260;28;5810;-68
2022/04/29 08:30:20;;;;;;;;;;;;;;;13.75;60.07;97672.69;4197865;28;5711;-68
2022/04/29 08:32:22;;;;;;;;;;;;;;;13.90;59.97;97678.75;4187103;28;5643;-68
2022/04/29 08:34:25;;;;;;;;;;;;;;;13.86;59.35;97680.16;4202331;28;5723;-68
2022/04/29 08:36:26;;;;;;;;;;;;;;;13.77;59.42;97685.78;4185922;28;5876;-68
2022/04/29 08:38:28;;;;;;;;;;;;;;;13.72;58.21;97689.03;4180348;28;5753;-71
2022/04/29 08:40:44;;;;;;;;;;;;;;;13.49;59.18;97683.91;4183813;28;5781;-71
2022/04/29 08:42:46;;;;;;;;;;;;;;;13.74;58.03;97689.66;4190722;28;5773;-69
2022/04/29 08:44:50;;;;;;;;;;;;;;;13.79;56.86;97689.06;4182002;28;5762;-69
2022/04/29 08:46:51;;;;;;;;;;;;;;;13.75;54.93;97687.81;4182882;28;6459;-71
2022/04/29 08:48:55;;;;;;;;;;;;;;;13.68;55.46;97688.56;4200132;28;5706;-68
2022/04/29 08:50:58;;;;;;;;;;;;;;;13.47;55.03;97685.09;4195617;28;5956;-68
2022/04/29 08:53:00;;;;;;;;;;;;;;;13.62;55.65;97681.38;4183431;28;5726;-68
2022/04/29 08:59:46;;;;;;;;;;;;;;;13.73;54.99;97685.38;4200180;28;5734;-67
2022/04/29 09:01:48;;;;;;;;;;;;;;;13.79;54.99;97673.94;4200182;28;5719;-66
2022/04/29 09:03:51;;;;;;;;;;;;;;;13.66;55.43;97672.00;4200015;28;5813;-67
2022/04/29 09:05:53;;;;;;;;;;;;;;;13.84;54.76;97670.72;4200203;28;5734;-68
2022/04/29 09:07:57;;;;;;;;;;;;;;;13.82;54.82;97667.44;4200129;28;5136;-67
2022/04/29 09:10:06;;;;;;;;;;;;;;;13.83;53.86;97669.09;4200084;28;5773;-66
2022/04/29 09:12:17;;;;;;;;;;;;;;;13.95;54.24;97663.06;4200055;28;5726;-67
2022/04/29 09:14:20;;;;;;;;;;;;;;;14.02;54.23;97662.28;4200251;28;5726;-66
2022/04/29 09:16:22;;;;;;;;;;;;;;;13.88;55.02;97659.50;4200117;28;5866;-66
2022/04/29 09:18:32;;;;;;;;;;;;;;;14.12;54.12;97652.13;4200208;28;5774;-66
2022/04/29 09:20:35;;;;;;;;;;;;;;;14.17;53.33;97649.72;4164701;28;5770;-66
2022/04/29 09:22:38;;;;;;;;;;;;;;;14.26;53.30;97648.53;4199115;28;5727;-66
2022/04/29 09:24:40;;;;;;;;;;;;;;;14.34;53.88;97653.69;4194238;28;5822;-66
2022/04/29 09:26:43;;;;;;;;;;;;;;;14.31;53.76;97647.94;4197225;28;7309;-66
2022/04/29 09:28:46;;;;;;;;;;;;;;;14.20;54.24;97650.13;4199789;28;5734;-66
2022/04/29 09:30:48;;;;;;;;;;;;;;;14.19;54.19;97651.16;4179243;28;5839;-67
2022/04/29 09:32:50;;;;;;;;;;;;;;;14.17;56.97;97644.41;4196440;28;6415;-66
2022/04/29 09:34:53;;;;;;;;;;;;;;;14.10;56.80;97641.69;4198792;28;5825;-66
2022/04/29 09:37:13;;;;;;;;;;;;;;;14.20;57.49;97636.84;4188065;28;5853;-66
2022/04/29 09:39:27;;;;;;;;;;;;;;;14.26;56.73;97644.03;4198179;28;5809;-66
2022/04/29 09:41:29;;;;;;;;;;;;;;;14.19;57.61;97642.34;4198666;28;5770;-66
2022/04/29 09:43:31;;;;;;;;;;;;;;;14.25;58.44;97646.88;4198330;28;5762;-67
2022/04/29 09:45:33;;;;;;;;;;;;;;;14.25;58.17;97653.00;4199422;28;5866;-66
2022/04/29 09:47:35;;;;;;;;;;;;;;;14.35;58.17;97641.22;4186379;28;5734;-67
2022/04/29 09:49:37;;;;;;;;;;;;;;;14.33;57.55;97638.75;4197561;28;5723;-66
2022/04/29 09:51:51;;;;;;;;;;;;;;;14.15;58.74;97638.41;4180452;28;6369;-66
2022/04/29 09:54:17;;;;;;;;;;;;;;;14.33;58.80;97633.44;4198051;28;5739;-66
2022/04/29 09:56:19;;;;;;;;;;;;;;;14.40;59.05;97633.47;4188749;28;5101;-66
2022/04/29 09:58:21;;;;;;;;;;;;;;;14.20;60.47;97628.03;4198745;28;5746;-66
2022/04/29 10:00:23;;;;;;;;;;;;;;;14.23;61.17;97622.31;4199307;28;6425;-66
2022/04/29 10:02:26;;;;;;;;;;;;;;;14.45;60.20;97621.25;4192345;28;5754;-66
2022/04/29 10:04:31;;;;;;;;;;;;;;;14.63;58.89;97617.25;4188421;28;5734;-67
2022/04/29 10:06:37;;;;;;;;;;;;;;;14.61;57.75;97613.94;4198869;28;5718;-65
2022/04/29 10:08:41;;;;;;;;;;;;;;;14.63;57.95;97617.25;4190841;28;5824;-65
2022/04/29 10:10:44;;;;;;;;;;;;;;;14.48;58.15;97610.19;4199088;28;5742;-66
2022/04/29 10:12:47;;;;;;;;;;;;;;;14.67;56.81;97613.97;4181553;28;5775;-66
2022/04/29 10:14:57;;;;;;;;;;;;;;;14.70;55.92;97610.91;4199117;28;5782;-66
2022/04/29 10:21:46;;;;;;;;;;;;;;;14.87;53.67;97608.72;4198644;28;5715;-66
2022/04/29 10:23:51;;;;;;;;;;;;;;;14.92;53.58;97600.94;4164135;28;6489;-66
2022/04/29 10:25:54;;;;;;;;;;;;;;;14.91;53.63;97599.31;4198283;28;5714;-67
2022/04/29 10:27:56;;;;;;;;;;;;;;;14.87;53.11;97598.06;4198692;28;5774;-67
2022/04/29 10:29:58;;;;;;;;;;;;;;;14.99;53.31;97596.47;4199029;28;5730;-67
2022/04/29 10:32:08;;;;;;;;;;;;;;;15.02;52.91;97596.06;4202043;28;5827;-67
2022/04/29 10:34:28;;;;;;;;;;;;;;;15.07;53.74;97590.97;4182333;28;5895;-67
2022/04/29 10:36:29;;;;;;;;;;;;;;;15.21;52.78;97593.66;4191623;28;5817;-66
2022/04/29 10:38:37;;;;;;;;;;;;;;;15.19;52.72;97588.53;4198674;28;5816;-67
2022/04/29 10:40:39;;;;;;;;;;;;;;;15.26;52.47;97591.19;4198653;28;5833;-67
2022/04/29 10:43:05;;;;;;;;;;;;;;;15.26;51.31;97592.00;4198662;28;5750;-66
2022/04/29 10:45:07;;;;;;;;;;;;;;;15.34;51.24;97588.31;4198655;28;5767;-66
2022/04/29 10:47:38;;;;;;;;;;;;;;;15.23;50.09;97588.94;4180711;28;5966;-66
2022/04/29 10:49:40;;;;;;;;;;;;;;;15.37;51.16;97590.56;4198023;28;5722;-66
2022/04/29 10:51:49;;;;;;;;;;;;;;;15.54;51.07;97583.00;4195463;28;5730;-66
2022/04/29 10:53:56;;;;;;;;;;;;;;;15.32;49.84;97587.72;4198684;28;5808;-66
2022/04/29 10:56:30;;;;;;;;;;;;;;;15.47;50.63;97587.50;4198316;28;5734;-66
2022/04/29 10:58:45;;;;;;;;;;;;;;;15.56;49.65;97575.63;4180393;28;5881;-66
2022/04/29 11:01:27;;;;;;;;;;;;;;;15.53;50.61;97584.88;4198635;28;5773;-66
2022/04/29 11:03:41;;;;;;;;;;;;;;;15.52;50.99;97585.88;4170770;28;5734;-66
2022/04/29 11:05:43;;;;;;;;;;;;;;;15.29;52.50;97586.28;4198550;28;5093;-66
2022/04/29 11:07:46;;;;;;;;;;;;;;;15.42;52.40;97586.28;4180228;28;5889;-66
2022/04/29 11:09:49;;;;;;;;;;;;;;;15.36;52.88;97581.75;4198316;28;5734;-66
2022/04/29 11:11:52;;;;;;;;;;;;;;;15.36;52.83;97586.28;4197987;28;5726;-66
2022/04/29 11:14:00;;;;;;;;;;;;;;;15.29;52.84;97583.63;4198372;28;5821;-66
2022/04/29 11:16:14;;;;;;;;;;;;;;;15.14;52.82;97577.66;4197811;28;5726;-66
2022/04/29 11:18:23;;;;;;;;;;;;;;;15.27;52.33;97577.66;4180822;28;5761;-66
2022/04/29 11:20:25;;;;;;;;;;;;;;;15.33;52.39;97573.38;4198136;28;5718;-65
2022/04/29 11:24:52;;;;;;;;;;;;;;;15.30;52.02;97565.78;4196663;28;5859;-67
2022/04/29 11:26:55;;;;;;;;;;;;;;;15.28;51.68;97557.16;4197003;28;5742;-67
2022/04/29 11:28:57;;;;;;;;;;;;;;;15.15;53.28;97556.13;4197332;28;5845;-67
2022/04/29 11:31:02;;;;;;;;;;;;;;;15.23;52.61;97557.78;4194003;28;5718;-67
2022/04/29 11:33:03;;;;;;;;;;;;;;;15.27;53.21;97560.84;4196103;28;5102;-67
2022/04/29 11:35:05;;;;;;;;;;;;;;;15.34;51.81;97561.69;4204934;28;5818;-68
2022/04/29 11:37:07;;;;;;;;;;;;;;;15.48;51.74;97558.00;4162523;28;6423;-68
2022/04/29 11:39:16;;;;;;;;;;;;;;;15.50;51.64;97534.63;4196218;28;5750;-67
2022/04/29 11:41:20;;;;;;;;;;;;;;;15.55;51.20;97534.84;4184075;28;5639;-67
2022/04/29 11:43:23;;;;;;;;;;;;;;;15.73;51.61;97535.03;4193379;28;6442;-66
2022/04/29 11:45:25;;;;;;;;;;;;;;;15.82;51.41;97537.50;4187882;28;5858;-67
2022/04/29 11:47:30;;;;;;;;;;;;;;;15.88;51.12;97542.00;4179284;28;5913;-66
2022/04/29 11:49:34;;;;;;;;;;;;;;;15.90;51.58;97535.44;4195943;28;5739;-66
2022/04/29 11:51:35;;;;;;;;;;;;;;;15.87;49.70;97535.03;4197400;28;5730;-66
2022/04/29 11:54:02;;;;;;;;;;;;;;;15.86;50.05;97531.53;4197315;28;5743;-66
2022/04/29 11:56:04;;;;;;;;;;;;;;;16.09;50.34;97535.59;4185570;28;5742;-67
2022/04/29 11:58:05;;;;;;;;;;;;;;;16.12;51.08;97527.16;4181533;28;5851;-67
2022/04/29 12:00:08;;;;;;;;;;;;;;;16.23;50.41;97527.34;4181186;28;5809;-67
2022/04/29 12:02:11;;;;;;;;;;;;;;;16.28;50.93;97527.50;4176019;28;5827;-66
2022/04/29 12:04:13;;;;;;;;;;;;;;;16.30;49.36;97524.63;4200624;28;5714;-66
2022/04/29 12:06:16;;;;;;;;;;;;;;;16.29;48.89;97522.97;4201259;28;6504;-66
2022/04/29 12:08:18;;;;;;;;;;;;;;;16.35;48.93;97521.34;4197930;28;5740;-66
2022/04/29 12:10:26;;;;;;;;;;;;;;;16.46;49.31;97526.00;4198611;28;5810;-66
2022/04/29 12:12:29;;;;;;;;;;;;;;;16.56;49.30;97527.19;4200770;28;5750;-66
2022/04/29 12:14:32;;;;;;;;;;;;;;;16.48;47.55;97523.94;4201269;28;5738;-66
2022/04/29 12:16:43;;;;;;;;;;;;;;;16.44;47.35;97522.72;4182198;28;5868;-66
2022/04/29 12:18:49;;;;;;;;;;;;;;;16.42;47.42;97522.94;4177634;28;5844;-66
2022/04/29 12:21:00;;;;;;;;;;;;;;;16.38;47.13;97521.72;4184518;28;5797;-66
2022/04/29 12:23:22;;;;;;;;;;;;;;;16.30;47.49;97513.94;4198872;28;5707;-66
2022/04/29 12:25:29;;;;;;;;;;;;;;;16.33;47.94;97516.22;4200565;28;5727;-66
2022/04/29 12:27:31;;;;;;;;;;;;;;;16.47;46.92;97514.28;4172774;28;5756;-66
2022/04/29 12:29:34;;;;;;;;;;;;;;;16.46;47.79;97518.00;4186686;28;5749;-66
2022/04/29 12:36:18;;;;;;;;;;;;;;;16.48;47.09;97508.75;4200486;28;5790;-66
2022/04/29 12:38:20;;;;;;;;;;;;;;;16.63;46.74;97512.97;4199670;28;5741;-66
2022/04/29 12:40:29;;;;;;;;;;;;;;;16.73;46.87;97513.34;4200543;28;5731;-66
2022/04/29 12:42:31;;;;;;;;;;;;;;;16.81;46.88;97507.78;4200319;28;5718;-67
2022/04/29 12:47:24;;;;;;;;;;;;;;;17.00;47.20;97508.69;4199325;28;5833;-67
2022/04/29 12:49:26;;;;;;;;;;;;;;;17.00;46.46;97500.69;4201784;28;5706;-67
2022/04/29 12:51:32;;;;;;;;;;;;;;;17.05;46.43;97498.16;4202334;28;6452;-67
2022/04/29 12:53:36;;;;;;;;;;;;;;;17.11;46.11;97506.13;4169508;28;5737;-67
2022/04/29 12:55:47;;;;;;;;;;;;;;;17.11;46.47;97486.63;4202027;28;5620;-67
2022/04/29 12:57:49;;;;;;;;;;;;;;;17.20;46.34;97495.97;4185266;28;5655;-66
2022/04/29 12:59:52;;;;;;;;;;;;;;;17.22;45.66;97488.59;4203055;28;6423;-67
2022/04/29 13:01:54;;;;;;;;;;;;;;;17.12;46.09;97489.06;4201831;28;5635;-67
2022/04/29 13:03:58;;;;;;;;;;;;;;;17.11;45.49;97484.75;4202203;28;5648;-67
2022/04/29 13:06:01;;;;;;;;;;;;;;;17.12;43.95;97485.56;4203012;28;5647;-67
2022/04/29 13:08:04;;;;;;;;;;;;;;;17.10;42.62;97479.59;4202236;28;5843;-68
2022/04/29 13:10:07;;;;;;;;;;;;;;;17.17;44.06;97477.72;4202275;28;5819;-66
2022/04/29 13:12:11;;;;;;;;;;;;;;;17.23;43.80;97479.53;4202449;28;5620;-68
2022/04/29 13:14:15;;;;;;;;;;;;;;;17.25;44.33;97485.47;4202755;28;5636;-68
2022/04/29 13:16:19;;;;;;;;;;;;;;;17.29;43.94;97477.81;4202479;28;5703;-68
2022/04/29 13:18:22;;;;;;;;;;;;;;;17.18;43.69;97472.16;4184301;28;5761;-68
2022/04/29 13:20:24;;;;;;;;;;;;;;;17.18;43.85;97474.00;4202311;28;5631;-67
2022/04/29 13:22:25;;;;;;;;;;;;;;;17.35;44.22;97475.09;4188670;28;5639;-67
2022/04/29 13:24:27;;;;;;;;;;;;;;;17.43;44.03;97472.13;4178610;28;5716;-68
2022/04/29 13:26:31;;;;;;;;;;;;;;;17.57;44.07;97472.03;4202440;28;5635;-68
2022/04/29 13:28:34;;;;;;;;;;;;;;;17.62;43.60;97470.31;4193583;28;5720;-68
2022/04/29 13:30:37;;;;;;;;;;;;;;;17.70;43.33;97466.56;4185335;28;5835;-68
2022/04/29 13:32:39;;;;;;;;;;;;;;;17.72;41.88;97465.31;4185827;28;5859;-68
2022/04/29 13:34:40;;;;;;;;;;;;;;;17.81;41.88;97457.81;4185835;28;5905;-68
2022/04/29 13:36:43;;;;;;;;;;;;;;;17.88;43.18;97463.88;4184883;28;5643;-68
2022/04/29 13:38:45;;;;;;;;;;;;;;;17.86;43.06;97459.81;4184859;28;5758;-68
2022/04/29 13:40:46;;;;;;;;;;;;;;;17.78;42.29;97446.72;4184355;28;5650;-68
2022/04/29 13:42:48;;;;;;;;;;;;;;;17.77;43.22;97451.25;4202689;28;5715;-67
2022/04/29 13:44:49;;;;;;;;;;;;;;;17.88;43.09;97447.84;4202445;28;5775;-68
2022/04/29 13:46:52;;;;;;;;;;;;;;;17.88;42.33;97445.16;4202553;28;5718;-68
2022/04/29 13:48:53;;;;;;;;;;;;;;;17.79;41.77;97449.19;4184208;28;5635;-69
2022/04/29 13:50:55;;;;;;;;;;;;;;;17.91;42.18;97447.41;4183229;28;5787;-68
2022/04/29 13:53:19;;;;;;;;;;;;;;;17.98;42.60;97444.63;4183054;28;5700;-68
2022/04/29 13:55:19;;;;;;;;;;;;;;;18.01;42.78;97445.03;4181551;28;5826;-67
2022/04/29 13:57:23;;;;;;;;;;;;;;;18.03;42.98;97440.28;4179673;28;5822;-69
2022/04/29 13:59:25;;;;;;;;;;;;;;;18.06;41.89;97432.81;4175780;28;5938;-67
2022/04/29 14:01:27;;;;;;;;;;;;;;;18.06;42.17;97425.63;4168023;28;5866;-68
2022/04/29 14:03:29;;;;;;;;;;;;;;;18.13;41.37;97429.03;4176236;28;5932;-68
2022/04/29 14:05:32;;;;;;;;;;;;;;;18.15;41.53;97420.78;4176725;28;5843;-68
2022/04/29 14:07:33;;;;;;;;;;;;;;;18.23;41.88;97423.13;4193817;28;5883;-66
2022/04/29 14:09:35;;;;;;;;;;;;;;;18.28;41.40;97423.28;4172037;28;5893;-67
2022/04/29 14:11:37;;;;;;;;;;;;;;;18.28;41.83;97415.25;4180300;28;5806;-68
2022/04/29 14:13:39;;;;;;;;;;;;;;;18.28;42.06;97415.25;4171311;28;5859;-69
2022/04/29 14:15:41;;;;;;;;;;;;;;;18.24;41.51;97414.06;4177481;28;5922;-70
2022/04/29 14:17:44;;;;;;;;;;;;;;;18.24;42.26;97417.56;4163669;28;8685;-70
2022/04/29 14:19:46;;;;;;;;;;;;;;;18.29;42.63;97419.56;4172612;28;5940;-70
2022/04/29 14:21:47;;;;;;;;;;;;;;;18.31;42.49;97412.91;4177244;28;5863;-70
2022/04/29 14:23:49;;;;;;;;;;;;;;;18.24;42.04;97408.72;4176174;28;5760;-70
2022/04/29 14:25:51;;;;;;;;;;;;;;;17.88;42.36;97407.72;4175825;28;5762;-69
2022/04/29 14:27:52;;;;;;;;;;;;;;;18.03;43.12;97412.69;4168401;28;5745;-69
2022/04/29 14:29:54;;;;;;;;;;;;;;;17.98;43.09;97409.88;4177798;28;5803;-70
2022/04/29 14:31:56;;;;;;;;;;;;;;;17.84;43.05;97409.22;4176879;28;5807;-70
2022/04/29 14:33:58;;;;;;;;;;;;;;;17.39;43.36;97411.31;4178164;28;5874;-68
2022/04/29 14:36:00;;;;;;;;;;;;;;;17.66;44.52;97417.19;4173663;28;5817;-66
2022/04/29 14:38:02;;;;;;;;;;;;;;;17.74;45.12;97417.75;4179744;28;7769;-67
2022/04/29 14:40:06;;;;;;;;;;;;;;;17.80;46.55;97421.41;4180243;28;5143;-67
2022/04/29 14:42:08;;;;;;;;;;;;;;;17.87;46.57;97418.63;4179690;28;5902;-68
2022/04/29 14:44:12;;;;;;;;;;;;;;;17.79;45.60;97414.44;4176116;28;5873;-68
2022/04/29 14:46:14;;;;;;;;;;;;;;;17.78;46.14;97410.13;4180766;28;5803;-68
2022/04/29 14:48:21;;;;;;;;;;;;;;;17.83;47.18;97407.59;4165340;28;5832;-67
2022/04/29 14:50:23;;;;;;;;;;;;;;;17.89;47.26;97411.19;4188031;28;5743;-68
2022/04/29 14:52:25;;;;;;;;;;;;;;;17.93;47.00;97399.84;4198522;28;5742;-68
2022/04/29 14:54:27;;;;;;;;;;;;;;;17.97;47.03;97406.38;4180341;28;5959;-69
2022/04/29 14:56:28;;;;;;;;;;;;;;;17.89;48.54;97403.19;4197847;28;7722;-69
2022/04/29 14:58:31;;;;;;;;;;;;;;;17.88;50.04;97404.22;4195815;28;5747;-68
2022/04/29 15:00:33;;;;;;;;;;;;;;;17.94;49.52;97404.16;4194675;28;5722;-68
2022/04/29 15:02:34;;;;;;;;;;;;;;;17.86;49.34;97398.28;4193505;28;5854;-67
2022/04/29 15:04:38;;;;;;;;;;;;;;;17.97;48.99;97409.03;4197483;28;5741;-67
2022/04/29 15:06:41;;;;;;;;;;;;;;;18.00;48.87;97402.41;4197096;28;5726;-67
2022/04/29 15:08:42;;;;;;;;;;;;;;;18.01;49.02;97399.56;4177935;28;5777;-68
2022/04/29 15:15:38;;;;;;;;;;;;;;;18.03;48.34;97392.09;4196765;28;5722;-68
2022/04/29 15:17:40;;;;;;;;;;;;;;;18.14;49.56;97400.41;4189797;28;5745;-68
2022/04/29 15:19:42;;;;;;;;;;;;;;;18.08;49.44;97387.94;4187717;28;6555;-68